Time;durP1;ratioP1;P1;durP2;ratioP2;P2;SDS_P1;SDS_P2;PMS_P1;PMS_P2;Temp;Humidity;BMP_temperature;BMP_pressure;BME280_temperature;BME280_humidity;BME280_pressure;Samples;Min_cycle;Max_cycle;Signal;HPM_P1;HPM_P2
2022/05/07 00:01:33;;;;;;;;;;;24.40;46.00;;;;;;1503620;78;669;-59
2022/05/07 00:03:35;;;;;;;;;;;24.40;46.00;;;;;;1503491;78;735;-61
2022/05/07 00:05:37;;;;;;;;;;;24.40;46.00;;;;;;1481391;79;769;-59
2022/05/07 00:07:39;;;;;;;;;;;24.50;46.00;;;;;;1498289;79;662;-60
2022/05/07 00:09:41;;;;;;;;;;;24.50;46.10;;;;;;1479259;80;1130;-60
2022/05/07 00:11:43;;;;;;;;;;;24.30;46.00;;;;;;1479213;79;735;-59
2022/05/07 00:13:45;;;;;;;;;;;24.40;46.00;;;;;;1489665;78;1633;-58
2022/05/07 00:18:10;;;;;;;;;;;24.40;46.00;;;;;;1496999;79;1934;-60
2022/05/07 00:20:11;;;;;;;;;;;24.40;46.10;;;;;;1503195;78;1682;-59
2022/05/07 00:22:13;;;;;;;;;;;24.40;46.10;;;;;;1503608;79;775;-60
2022/05/07 00:24:15;;;;;;;;;;;24.40;46.10;;;;;;1496173;79;705;-61
2022/05/07 00:26:16;;;;;;;;;;;24.40;46.00;;;;;;1485288;79;702;-59
2022/05/07 00:28:18;;;;;;;;;;;24.50;46.20;;;;;;1501869;78;1589;-60
2022/05/07 00:30:20;;;;;;;;;;;24.40;46.10;;;;;;1493758;78;1150;-60
2022/05/07 00:32:22;;;;;;;;;;;24.50;46.20;;;;;;1510981;78;786;-60
2022/05/07 00:34:25;;;;;;;;;;;24.40;46.10;;;;;;1499427;78;640;-58
2022/05/07 00:36:27;;;;;;;;;;;24.50;46.10;;;;;;1524023;78;666;-60
2022/05/07 00:38:29;;;;;;;;;;;24.40;46.00;;;;;;1528571;77;1936;-60
2022/05/07 00:40:31;;;;;;;;;;;24.40;46.00;;;;;;1523926;78;1131;-60
2022/05/07 00:42:33;;;;;;;;;;;24.50;46.20;;;;;;1503242;78;1553;-59
2022/05/07 00:44:35;;;;;;;;;;;24.40;46.00;;;;;;1494564;78;685;-59
2022/05/07 00:46:37;;;;;;;;;;;24.50;46.10;;;;;;1479548;79;741;-60
2022/05/07 00:48:39;;;;;;;;;;;24.40;46.00;;;;;;1504659;78;646;-60
2022/05/07 00:53:01;;;;;;;;;;;24.50;46.10;;;;;;1496910;79;1633;-60
2022/05/07 00:55:02;;;;;;;;;;;24.40;46.00;;;;;;1503637;79;691;-59
2022/05/07 00:57:04;;;;;;;;;;;24.40;46.10;;;;;;1502613;78;721;-60
2022/05/07 00:59:06;;;;;;;;;;;24.40;46.00;;;;;;1497605;78;1939;-60
2022/05/07 01:01:08;;;;;;;;;;;24.50;46.10;;;;;;1503430;79;1111;-59
2022/05/07 01:03:10;;;;;;;;;;;24.30;46.00;;;;;;1503664;79;705;-59
2022/05/07 01:05:12;;;;;;;;;;;24.50;46.10;;;;;;1506148;78;767;-59
2022/05/07 01:07:14;;;;;;;;;;;24.40;46.00;;;;;;1499220;78;738;-60
2022/05/07 01:09:16;;;;;;;;;;;24.40;46.00;;;;;;1497206;79;1570;-59
2022/05/07 01:11:18;;;;;;;;;;;24.40;46.00;;;;;;1491183;78;704;-60
2022/05/07 01:13:20;;;;;;;;;;;24.50;46.10;;;;;;1491645;78;677;-59
2022/05/07 01:15:22;;;;;;;;;;;24.30;46.00;;;;;;1477084;78;683;-59
2022/05/07 01:17:24;;;;;;;;;;;24.40;46.10;;;;;;1495694;79;815;-60
2022/05/07 01:19:26;;;;;;;;;;;24.40;46.10;;;;;;1503535;79;1941;-60
2022/05/07 01:21:28;;;;;;;;;;;24.40;46.10;;;;;;1481553;79;665;-60
2022/05/07 01:23:30;;;;;;;;;;;24.40;46.10;;;;;;1501965;78;1464;-58
2022/05/07 01:25:32;;;;;;;;;;;24.40;46.10;;;;;;1503300;78;676;-59
2022/05/07 01:27:34;;;;;;;;;;;24.40;46.10;;;;;;1480204;78;692;-60
2022/05/07 01:29:36;;;;;;;;;;;24.30;46.00;;;;;;1479116;79;1120;-59
2022/05/07 01:31:38;;;;;;;;;;;24.50;46.20;;;;;;1496398;79;748;-59
2022/05/07 01:33:40;;;;;;;;;;;24.40;46.20;;;;;;1503627;79;668;-60
2022/05/07 01:35:42;;;;;;;;;;;24.40;46.10;;;;;;1503359;79;676;-60
2022/05/07 01:37:44;;;;;;;;;;;24.40;46.20;;;;;;1498589;78;1933;-59
2022/05/07 01:39:46;;;;;;;;;;;24.50;46.20;;;;;;1502189;78;1144;-61
2022/05/07 01:41:48;;;;;;;;;;;24.50;46.20;;;;;;1479158;79;657;-61
2022/05/07 01:43:50;;;;;;;;;;;24.50;46.20;;;;;;1486786;79;666;-61
2022/05/07 01:45:52;;;;;;;;;;;24.40;46.10;;;;;;1503294;79;663;-60
2022/05/07 01:48:12;;;;;;;;;;;24.40;46.10;;;;;;1503542;78;751;-59
2022/05/07 01:50:13;;;;;;;;;;;24.40;46.20;;;;;;1526773;78;1206;-60
2022/05/07 01:52:15;;;;;;;;;;;24.40;46.20;;;;;;1492818;78;1596;-59
2022/05/07 01:54:17;;;;;;;;;;;24.30;46.20;;;;;;1496745;78;707;-58
2022/05/07 01:56:19;;;;;;;;;;;24.30;46.20;;;;;;1508203;78;732;-58
2022/05/07 01:58:21;;;;;;;;;;;24.30;46.20;;;;;;1490224;78;1943;-59
2022/05/07 02:00:23;;;;;;;;;;;24.30;46.30;;;;;;1508621;78;1132;-61
2022/05/07 02:02:25;;;;;;;;;;;24.30;46.20;;;;;;1505554;78;729;-59
2022/05/07 02:04:26;;;;;;;;;;;24.30;46.30;;;;;;1501538;77;681;-60
2022/05/07 02:06:28;;;;;;;;;;;24.30;46.20;;;;;;1508584;78;1640;-60
2022/05/07 02:08:30;;;;;;;;;;;24.30;46.20;;;;;;1503567;78;669;-59
2022/05/07 02:10:32;;;;;;;;;;;24.30;46.30;;;;;;1483323;78;1142;-59
2022/05/07 02:12:34;;;;;;;;;;;24.30;46.30;;;;;;1491387;79;660;-60
2022/05/07 02:14:36;;;;;;;;;;;24.30;46.30;;;;;;1503550;79;581;-58
2022/05/07 02:16:38;;;;;;;;;;;24.30;46.30;;;;;;1503683;78;764;-59
2022/05/07 02:18:40;;;;;;;;;;;24.30;46.30;;;;;;1491486;78;1945;-60
2022/05/07 02:20:42;;;;;;;;;;;24.30;46.30;;;;;;1494745;78;1618;-60
2022/05/07 02:22:44;;;;;;;;;;;24.30;46.30;;;;;;1495596;78;697;-60
2022/05/07 02:24:46;;;;;;;;;;;24.30;46.20;;;;;;1503507;79;770;-58
2022/05/07 02:26:48;;;;;;;;;;;24.30;46.40;;;;;;1503174;78;710;-60
2022/05/07 02:28:50;;;;;;;;;;;24.30;46.30;;;;;;1503737;79;714;-61
2022/05/07 02:30:52;;;;;;;;;;;24.40;46.30;;;;;;1503727;79;1136;-59
2022/05/07 02:32:54;;;;;;;;;;;24.50;46.30;;;;;;1503585;79;685;-58
2022/05/07 02:34:56;;;;;;;;;;;24.40;46.20;;;;;;1498758;78;1548;-60
2022/05/07 02:36:58;;;;;;;;;;;24.50;46.30;;;;;;1493922;78;738;-58
2022/05/07 02:39:00;;;;;;;;;;;24.50;46.00;;;;;;1503497;79;1965;-60
2022/05/07 02:43:22;;;;;;;;;;;24.70;46.00;;;;;;1503112;78;1616;-59
2022/05/07 02:45:24;;;;;;;;;;;24.60;46.20;;;;;;1503724;79;666;-60
2022/05/07 02:47:26;;;;;;;;;;;24.60;46.30;;;;;;1503748;79;681;-60
2022/05/07 02:49:27;;;;;;;;;;;24.50;46.60;;;;;;1503373;78;1700;-60
2022/05/07 02:51:29;;;;;;;;;;;24.50;46.80;;;;;;1484961;78;682;-58
2022/05/07 02:53:31;;;;;;;;;;;24.50;47.00;;;;;;1500843;79;687;-60
2022/05/07 02:55:33;;;;;;;;;;;24.50;47.10;;;;;;1484930;79;650;-59
2022/05/07 02:57:35;;;;;;;;;;;24.50;46.80;;;;;;1480146;79;689;-59
2022/05/07 02:59:38;;;;;;;;;;;24.40;46.90;;;;;;1479045;80;1954;-60
2022/05/07 03:01:42;;;;;;;;;;;24.40;46.90;;;;;;1501379;78;1586;-61
2022/05/07 03:03:44;;;;;;;;;;;24.40;46.80;;;;;;1498446;78;923;-60
2022/05/07 03:05:46;;;;;;;;;;;24.50;47.00;;;;;;1479413;79;825;-58
2022/05/07 03:07:48;;;;;;;;;;;24.40;46.80;;;;;;1502467;78;664;-60
2022/05/07 03:09:50;;;;;;;;;;;24.40;46.80;;;;;;1500112;78;1126;-58
2022/05/07 03:11:52;;;;;;;;;;;24.40;46.70;;;;;;1485861;78;773;-61
2022/05/07 03:13:54;;;;;;;;;;;24.40;46.70;;;;;;1503688;79;699;-60
2022/05/07 03:15:56;;;;;;;;;;;24.50;46.70;;;;;;1500959;79;1425;-58
2022/05/07 03:17:57;;;;;;;;;;;24.50;46.60;;;;;;1498554;78;802;-58
2022/05/07 03:19:59;;;;;;;;;;;24.50;46.60;;;;;;1479678;78;1958;-60
2022/05/07 03:22:01;;;;;;;;;;;24.50;46.50;;;;;;1503789;79;671;-60
2022/05/07 03:24:03;;;;;;;;;;;24.50;46.50;;;;;;1503592;79;778;-60
2022/05/07 03:26:05;;;;;;;;;;;24.50;46.40;;;;;;1503403;79;670;-61
2022/05/07 03:28:07;;;;;;;;;;;24.50;46.40;;;;;;1485111;79;692;-61
2022/05/07 03:30:09;;;;;;;;;;;24.50;46.40;;;;;;1483677;79;1681;-59
2022/05/07 03:32:11;;;;;;;;;;;24.60;46.30;;;;;;1497114;78;662;-58
2022/05/07 03:34:13;;;;;;;;;;;24.50;46.30;;;;;;1479083;78;624;-61
2022/05/07 03:36:19;;;;;;;;;;;24.50;46.30;;;;;;1498420;79;690;-61
2022/05/07 03:38:22;;;;;;;;;;;24.60;46.30;;;;;;1503736;78;684;-60
2022/05/07 03:40:24;;;;;;;;;;;24.50;46.30;;;;;;1503705;78;1129;-60
2022/05/07 03:42:27;;;;;;;;;;;24.50;46.30;;;;;;1499720;78;755;-60
2022/05/07 03:44:29;;;;;;;;;;;24.60;46.30;;;;;;1481575;78;1637;-59
2022/05/07 03:46:31;;;;;;;;;;;24.60;46.30;;;;;;1488713;78;685;-60
2022/05/07 03:48:33;;;;;;;;;;;24.50;46.20;;;;;;1484508;78;692;-59
2022/05/07 03:50:35;;;;;;;;;;;24.50;46.20;;;;;;1503776;78;1132;-61
2022/05/07 03:54:57;;;;;;;;;;;24.60;46.20;;;;;;1503585;79;1636;-59
2022/05/07 03:56:59;;;;;;;;;;;24.60;46.00;;;;;;1503326;79;656;-60
2022/05/07 03:59:01;;;;;;;;;;;24.60;46.00;;;;;;1494430;78;1950;-58
2022/05/07 04:01:03;;;;;;;;;;;24.60;45.90;;;;;;1486560;78;1092;-58
2022/05/07 04:03:05;;;;;;;;;;;24.70;45.80;;;;;;1479074;79;678;-59
2022/05/07 04:05:07;;;;;;;;;;;24.70;45.70;;;;;;1496120;79;789;-59
2022/05/07 04:07:09;;;;;;;;;;;24.80;45.40;;;;;;1503622;78;718;-60
2022/05/07 04:09:11;;;;;;;;;;;24.80;45.20;;;;;;1500985;78;788;-58
2022/05/07 04:11:13;;;;;;;;;;;25.00;45.00;;;;;;1479540;78;1114;-59
2022/05/07 04:13:15;;;;;;;;;;;25.00;44.90;;;;;;1501421;78;1690;-60
2022/05/07 04:15:18;;;;;;;;;;;25.00;44.90;;;;;;1483051;78;695;-58
2022/05/07 04:17:20;;;;;;;;;;;25.10;44.70;;;;;;1494889;78;681;-59
2022/05/07 04:19:22;;;;;;;;;;;25.10;44.30;;;;;;1503708;79;1947;-60
2022/05/07 04:21:23;;;;;;;;;;;25.20;44.20;;;;;;1503727;79;672;-60
2022/05/07 04:23:25;;;;;;;;;;;25.20;44.10;;;;;;1503457;79;699;-59
2022/05/07 04:25:27;;;;;;;;;;;25.20;44.00;;;;;;1503280;79;773;-60
2022/05/07 04:27:29;;;;;;;;;;;25.20;44.10;;;;;;1494868;78;1636;-60
2022/05/07 04:29:31;;;;;;;;;;;25.10;44.70;;;;;;1492227;78;1140;-59
2022/05/07 04:31:33;;;;;;;;;;;25.10;44.40;;;;;;1491106;79;714;-61
2022/05/07 04:33:35;;;;;;;;;;;25.20;44.10;;;;;;1503259;79;744;-61
2022/05/07 04:35:37;;;;;;;;;;;25.20;44.00;;;;;;1488266;79;906;-61
2022/05/07 04:37:38;;;;;;;;;;;25.10;44.10;;;;;;1490863;79;765;-61
2022/05/07 04:39:40;;;;;;;;;;;25.10;44.10;;;;;;1493490;79;1935;-60
2022/05/07 04:41:42;;;;;;;;;;;25.00;44.20;;;;;;1487467;78;1400;-58
2022/05/07 04:43:45;;;;;;;;;;;25.00;44.30;;;;;;1494078;78;771;-60
2022/05/07 04:45:48;;;;;;;;;;;25.00;44.40;;;;;;1488526;79;911;-61
2022/05/07 04:47:50;;;;;;;;;;;24.90;44.40;;;;;;1494294;79;711;-60
2022/05/07 04:49:51;;;;;;;;;;;24.90;44.40;;;;;;1491746;79;1089;-60
2022/05/07 04:51:53;;;;;;;;;;;24.90;44.40;;;;;;1487051;79;713;-60
2022/05/07 04:53:55;;;;;;;;;;;24.90;44.30;;;;;;1494287;79;709;-60
2022/05/07 04:55:57;;;;;;;;;;;24.90;44.20;;;;;;1493197;78;1585;-59
2022/05/07 04:57:59;;;;;;;;;;;24.90;44.20;;;;;;1496520;78;702;-59
2022/05/07 05:00:01;;;;;;;;;;;24.90;44.20;;;;;;1498137;79;1938;-59
2022/05/07 05:02:03;;;;;;;;;;;24.80;44.10;;;;;;1489837;78;675;-58
2022/05/07 05:04:05;;;;;;;;;;;24.80;44.20;;;;;;1494151;79;647;-58
2022/05/07 05:06:07;;;;;;;;;;;24.80;44.10;;;;;;1493045;79;823;-59
2022/05/07 05:08:08;;;;;;;;;;;24.80;44.10;;;;;;1495109;78;666;-58
2022/05/07 05:10:11;;;;;;;;;;;24.80;44.10;;;;;;1492566;78;1555;-58
2022/05/07 05:12:13;;;;;;;;;;;24.80;44.20;;;;;;1496914;78;739;-60
2022/05/07 05:16:34;;;;;;;;;;;24.80;44.10;;;;;;1494442;79;810;-60
2022/05/07 05:18:36;;;;;;;;;;;24.90;44.10;;;;;;1499341;78;764;-60
2022/05/07 05:20:38;;;;;;;;;;;24.80;44.00;;;;;;1495667;79;1957;-58
2022/05/07 05:22:41;;;;;;;;;;;24.80;44.00;;;;;;1496063;78;1407;-59
2022/05/07 05:24:43;;;;;;;;;;;24.80;43.90;;;;;;1497537;78;2016;-60
2022/05/07 05:26:45;;;;;;;;;;;24.80;44.00;;;;;;1501193;78;818;-60
2022/05/07 05:28:47;;;;;;;;;;;24.80;44.00;;;;;;1491427;79;675;-59
2022/05/07 05:30:52;;;;;;;;;;;24.80;44.00;;;;;;1498394;79;1179;-58
2022/05/07 05:32:54;;;;;;;;;;;24.80;44.00;;;;;;1491172;79;685;-59
2022/05/07 05:34:56;;;;;;;;;;;24.80;44.00;;;;;;1494989;79;741;-58
2022/05/07 05:36:57;;;;;;;;;;;24.80;44.00;;;;;;1494888;78;1587;-57
2022/05/07 05:39:00;;;;;;;;;;;24.80;43.90;;;;;;1496748;78;740;-57
2022/05/07 05:41:02;;;;;;;;;;;24.80;43.90;;;;;;1493885;78;1910;-57
2022/05/07 05:43:04;;;;;;;;;;;24.80;43.90;;;;;;1489944;79;714;-57
2022/05/07 05:45:09;;;;;;;;;;;24.80;43.90;;;;;;1498682;79;774;-58
2022/05/07 05:47:10;;;;;;;;;;;24.80;43.90;;;;;;1491380;79;1638;-57
2022/05/07 05:49:12;;;;;;;;;;;24.80;43.90;;;;;;1495755;79;688;-57
2022/05/07 05:51:13;;;;;;;;;;;24.80;43.80;;;;;;1496717;78;1583;-58
2022/05/07 05:53:15;;;;;;;;;;;24.80;43.80;;;;;;1491931;78;706;-58
2022/05/07 05:55:17;;;;;;;;;;;24.80;43.90;;;;;;1497280;79;724;-59
2022/05/07 05:57:19;;;;;;;;;;;24.90;43.90;;;;;;1500055;79;732;-58
2022/05/07 05:59:21;;;;;;;;;;;24.80;43.70;;;;;;1499197;79;1914;-58
2022/05/07 06:01:23;;;;;;;;;;;24.80;43.70;;;;;;1493428;79;692;-57
2022/05/07 11:32:38;;;;;;;;;;;24.80;43.60;;;;;;1496017;78;1608;-56
2022/05/07 11:34:41;;;;;;;;;;;24.80;43.50;;;;;;1500940;78;704;-56
2022/05/07 11:36:43;;;;;;;;;;;24.80;43.50;;;;;;1489575;78;686;-55
2022/05/07 11:38:44;;;;;;;;;;;24.80;43.50;;;;;;1508396;78;726;-58
2022/05/07 11:40:48;;;;;;;;;;;24.80;43.60;;;;;;1489532;78;1934;-55
2022/05/07 11:45:25;;;;;;;;;;;24.80;43.40;;;;;;1496579;78;1877;-57
2022/05/07 11:47:21;;;;;;;;;;;24.90;43.50;;;;;;1493191;79;1697;-55
2022/05/07 11:49:27;;;;;;;;;;;24.80;43.60;;;;;;1500202;78;1158;-57
2022/05/07 11:51:29;;;;;;;;;;;24.80;43.60;;;;;;1502022;78;683;-58
2022/05/07 11:53:31;;;;;;;;;;;24.70;43.70;;;;;;1499657;79;759;-57
2022/05/07 11:55:33;;;;;;;;;;;24.70;43.90;;;;;;1500565;79;750;-56
2022/05/07 11:57:44;;;;;;;;;;;24.60;43.80;;;;;;1496451;78;1499;-54
2022/05/07 11:59:43;;;;;;;;;;;24.60;43.90;;;;;;1499757;78;1627;-54
2022/05/07 12:01:46;;;;;;;;;;;24.70;44.00;;;;;;1493576;78;871;-55
2022/05/07 12:03:49;;;;;;;;;;;24.70;44.00;;;;;;1492503;78;1864;-57
2022/05/07 12:05:51;;;;;;;;;;;24.70;44.00;;;;;;1501052;78;681;-56
2022/05/07 12:07:53;;;;;;;;;;;24.70;44.00;;;;;;1506615;78;761;-58
2022/05/07 12:09:55;;;;;;;;;;;24.80;43.80;;;;;;1499357;79;1163;-55
2022/05/07 12:11:57;;;;;;;;;;;24.80;43.70;;;;;;1502967;78;1460;-57
2022/05/07 12:13:59;;;;;;;;;;;24.90;43.60;;;;;;1500462;78;674;-56
2022/05/07 12:18:20;;;;;;;;;;;25.00;43.40;;;;;;1491475;79;1638;-55
2022/05/07 12:20:23;;;;;;;;;;;24.90;43.50;;;;;;1499702;79;1950;-54
2022/05/07 12:31:45;;;;;;;;;;;25.00;43.40;;;;;;1503562;79;1629;-59
2022/05/07 12:33:47;;;;;;;;;;;25.00;43.40;;;;;;1501723;79;672;-57
2022/05/07 12:35:49;;;;;;;;;;;25.00;43.30;;;;;;1505761;78;851;-57
2022/05/07 12:37:51;;;;;;;;;;;25.00;43.40;;;;;;1498456;79;676;-58
2022/05/07 12:39:53;;;;;;;;;;;25.00;43.40;;;;;;1490028;78;1680;-57
2022/05/07 12:41:55;;;;;;;;;;;25.00;43.40;;;;;;1495041;78;670;-57
2022/05/07 12:43:58;;;;;;;;;;;25.00;43.40;;;;;;1495202;79;840;-56
2022/05/07 12:46:01;;;;;;;;;;;25.10;43.40;;;;;;1501028;79;704;-55
2022/05/07 12:48:03;;;;;;;;;;;25.10;43.20;;;;;;1502901;78;681;-53
2022/05/07 12:50:05;;;;;;;;;;;25.10;43.10;;;;;;1498928;78;1125;-58
2022/05/07 12:52:11;;;;;;;;;;;25.10;43.10;;;;;;1500211;79;684;-53
2022/05/07 12:54:10;;;;;;;;;;;25.20;43.00;;;;;;1499146;78;1455;-59
2022/05/07 12:56:12;;;;;;;;;;;25.20;42.90;;;;;;1499892;78;681;-57
2022/05/07 12:58:14;;;;;;;;;;;25.20;42.80;;;;;;1492169;79;765;-54
2022/05/07 13:00:16;;;;;;;;;;;25.20;42.80;;;;;;1500794;78;1934;-57
2022/05/07 13:02:19;;;;;;;;;;;25.20;42.80;;;;;;1511082;78;743;-55
2022/05/07 13:04:24;;;;;;;;;;;25.20;42.80;;;;;;1500500;78;695;-55
2022/05/07 13:06:24;;;;;;;;;;;25.20;42.90;;;;;;1497838;78;1689;-54
2022/05/07 13:08:27;;;;;;;;;;;25.20;43.00;;;;;;1500531;78;644;-55
2022/05/07 13:10:28;;;;;;;;;;;25.20;43.00;;;;;;1500549;78;1122;-54
2022/05/07 13:12:30;;;;;;;;;;;25.20;43.10;;;;;;1499513;79;704;-54
2022/05/07 13:14:35;;;;;;;;;;;25.20;43.10;;;;;;1499589;79;685;-54
2022/05/07 13:16:36;;;;;;;;;;;25.20;43.00;;;;;;1493909;79;1695;-54
2022/05/07 13:18:38;;;;;;;;;;;25.20;43.10;;;;;;1501734;78;642;-55
2022/05/07 13:20:39;;;;;;;;;;;25.20;43.10;;;;;;1499924;78;1957;-53
2022/05/07 13:22:41;;;;;;;;;;;25.20;43.00;;;;;;1502261;78;685;-53
2022/05/07 13:24:43;;;;;;;;;;;25.30;43.00;;;;;;1499720;78;792;-56
2022/05/07 13:26:45;;;;;;;;;;;25.30;43.00;;;;;;1499497;79;635;-57
2022/05/07 13:28:47;;;;;;;;;;;25.30;42.90;;;;;;1500741;79;676;-59
2022/05/07 13:30:49;;;;;;;;;;;25.40;42.80;;;;;;1496886;79;1180;-58
2022/05/07 13:32:52;;;;;;;;;;;25.40;42.70;;;;;;1499112;78;705;-56
2022/05/07 13:34:54;;;;;;;;;;;25.40;42.70;;;;;;1497652;78;1562;-57
2022/05/07 13:36:56;;;;;;;;;;;25.40;42.60;;;;;;1495062;78;675;-55
2022/05/07 13:39:02;;;;;;;;;;;25.40;42.60;;;;;;1483127;79;844;-57
2022/05/07 13:41:01;;;;;;;;;;;25.40;42.70;;;;;;1492806;78;1923;-57
2022/05/07 13:43:04;;;;;;;;;;;25.30;42.70;;;;;;1493892;79;695;-56
2022/05/07 13:45:11;;;;;;;;;;;25.30;42.80;;;;;;1499432;79;616;-56
2022/05/07 13:47:11;;;;;;;;;;;25.20;42.80;;;;;;1498246;79;1624;-57
2022/05/07 13:49:13;;;;;;;;;;;25.20;43.10;;;;;;1498108;78;1406;-58
2022/05/07 13:51:16;;;;;;;;;;;25.20;43.10;;;;;;1500408;78;727;-55
2022/05/07 13:53:22;;;;;;;;;;;25.10;43.10;;;;;;1500382;78;663;-58
2022/05/07 13:55:24;;;;;;;;;;;25.10;43.40;;;;;;1499676;79;670;-57
2022/05/07 13:57:26;;;;;;;;;;;25.00;43.50;;;;;;1502442;78;649;-59
2022/05/07 13:59:35;;;;;;;;;;;25.00;43.60;;;;;;1500390;79;1139;-59
2022/05/07 14:01:34;;;;;;;;;;;25.00;43.60;;;;;;1493643;79;1927;-59
2022/05/07 14:03:36;;;;;;;;;;;25.00;43.70;;;;;;1499496;78;1570;-55
2022/05/07 14:05:38;;;;;;;;;;;25.00;43.70;;;;;;1492541;78;684;-56
2022/05/07 14:07:40;;;;;;;;;;;25.00;43.70;;;;;;1494587;79;732;-56
2022/05/07 14:09:47;;;;;;;;;;;25.00;43.80;;;;;;1499596;79;1148;-56
2022/05/07 14:11:45;;;;;;;;;;;24.90;43.90;;;;;;1499618;79;1617;-55
2022/05/07 14:13:47;;;;;;;;;;;24.90;43.90;;;;;;1499518;79;624;-58
2022/05/07 14:15:49;;;;;;;;;;;24.90;43.90;;;;;;1499531;79;687;-57
2022/05/07 14:17:52;;;;;;;;;;;25.00;43.90;;;;;;1498664;78;1654;-57
2022/05/07 14:19:54;;;;;;;;;;;25.00;43.80;;;;;;1500540;78;1179;-56
2022/05/07 14:21:56;;;;;;;;;;;25.00;43.70;;;;;;1500303;79;1907;-54
2022/05/07 14:23:58;;;;;;;;;;;25.10;43.60;;;;;;1494075;79;718;-58
2022/05/07 14:26:01;;;;;;;;;;;25.10;43.60;;;;;;1503602;79;689;-59
2022/05/07 14:28:03;;;;;;;;;;;25.10;43.50;;;;;;1498369;79;788;-58
2022/05/07 14:30:06;;;;;;;;;;;25.20;43.30;;;;;;1492326;79;1145;-56
2022/05/07 14:32:09;;;;;;;;;;;25.30;43.00;;;;;;1499407;78;1647;-56
2022/05/07 14:34:11;;;;;;;;;;;25.30;42.90;;;;;;1492608;78;649;-59
2022/05/07 14:36:13;;;;;;;;;;;25.40;42.80;;;;;;1508510;78;684;-57
2022/05/07 14:38:15;;;;;;;;;;;25.40;42.70;;;;;;1499938;79;728;-56
2022/05/07 14:40:31;;;;;;;;;;;25.40;42.70;;;;;;1496529;78;1136;-55
2022/05/07 14:42:33;;;;;;;;;;;25.40;42.60;;;;;;1503595;78;1913;-57
2022/05/07 14:44:35;;;;;;;;;;;25.40;42.60;;;;;;1499498;79;602;-57
2022/05/07 14:46:37;;;;;;;;;;;25.40;42.50;;;;;;1500633;78;1677;-57
2022/05/07 14:48:39;;;;;;;;;;;25.40;42.50;;;;;;1501501;78;666;-56
2022/05/07 14:50:41;;;;;;;;;;;25.40;42.50;;;;;;1499684;79;1134;-54
2022/05/07 14:52:43;;;;;;;;;;;25.40;42.40;;;;;;1502332;79;679;-55
2022/05/07 14:54:45;;;;;;;;;;;25.40;42.40;;;;;;1505255;78;627;-56
2022/05/07 14:56:46;;;;;;;;;;;25.40;42.40;;;;;;1498925;79;689;-56
2022/05/07 14:58:48;;;;;;;;;;;25.30;42.50;;;;;;1501076;79;701;-59
2022/05/07 15:00:50;;;;;;;;;;;25.40;42.60;;;;;;1501433;78;1954;-59
2022/05/07 15:02:52;;;;;;;;;;;25.30;42.80;;;;;;1508001;78;721;-56
2022/05/07 15:04:54;;;;;;;;;;;25.30;42.80;;;;;;1496715;78;723;-55
2022/05/07 15:06:56;;;;;;;;;;;25.30;42.80;;;;;;1500643;79;681;-56
2022/05/07 15:11:19;;;;;;;;;;;25.30;42.90;;;;;;1500740;79;742;-58
2022/05/07 15:13:22;;;;;;;;;;;25.30;42.80;;;;;;1500126;79;1426;-57
2022/05/07 15:15:24;;;;;;;;;;;25.30;42.90;;;;;;1501301;78;662;-55
2022/05/07 15:17:27;;;;;;;;;;;25.30;43.00;;;;;;1500395;78;683;-57
2022/05/07 15:19:28;;;;;;;;;;;25.20;43.00;;;;;;1499959;79;1160;-57
2022/05/07 15:21:30;;;;;;;;;;;25.20;43.10;;;;;;1499343;79;1930;-59
2022/05/07 15:23:32;;;;;;;;;;;25.20;43.10;;;;;;1497073;79;693;-58
2022/05/07 15:25:34;;;;;;;;;;;25.10;43.20;;;;;;1492773;79;771;-58
2022/05/07 15:27:36;;;;;;;;;;;25.20;43.30;;;;;;1496728;79;1615;-56
2022/05/07 15:29:38;;;;;;;;;;;25.20;43.40;;;;;;1500638;78;1164;-55
2022/05/07 15:31:40;;;;;;;;;;;25.10;43.40;;;;;;1499614;79;677;-57
2022/05/07 15:38:21;;;;;;;;;;;25.10;43.60;;;;;;1499784;79;1663;-55
2022/05/07 15:40:23;;;;;;;;;;;25.00;43.60;;;;;;1490390;79;1207;-57
2022/05/07 15:42:25;;;;;;;;;;;25.00;43.60;;;;;;1491871;78;1893;-54
2022/05/07 15:44:27;;;;;;;;;;;25.00;43.60;;;;;;1493932;78;782;-57
2022/05/07 15:46:29;;;;;;;;;;;25.00;43.70;;;;;;1499358;79;593;-57
2022/05/07 15:48:31;;;;;;;;;;;24.90;43.80;;;;;;1499726;79;640;-55
2022/05/07 15:50:34;;;;;;;;;;;25.00;43.80;;;;;;1500339;79;1133;-56
2022/05/07 15:52:36;;;;;;;;;;;25.00;43.80;;;;;;1502398;78;739;-57
2022/05/07 15:54:38;;;;;;;;;;;24.90;43.90;;;;;;1491769;79;741;-57
2022/05/07 15:56:40;;;;;;;;;;;24.90;43.80;;;;;;1500665;78;1613;-54
2022/05/07 15:58:42;;;;;;;;;;;25.00;43.80;;;;;;1499615;78;715;-57
2022/05/07 16:00:44;;;;;;;;;;;25.00;43.90;;;;;;1493964;79;1065;-57
2022/05/07 16:02:48;;;;;;;;;;;24.90;43.90;;;;;;1502180;78;1946;-56
2022/05/07 16:04:49;;;;;;;;;;;24.90;44.00;;;;;;1495940;78;1812;-55
2022/05/07 16:06:51;;;;;;;;;;;24.90;43.90;;;;;;1495547;79;653;-56
2022/05/07 16:08:54;;;;;;;;;;;24.90;43.90;;;;;;1494989;79;651;-54
2022/05/07 16:10:56;;;;;;;;;;;24.90;44.00;;;;;;1501830;78;1667;-55
2022/05/07 16:12:58;;;;;;;;;;;24.90;44.00;;;;;;1500715;78;679;-55
2022/05/07 16:15:01;;;;;;;;;;;24.90;44.00;;;;;;1502974;79;770;-58
2022/05/07 16:17:03;;;;;;;;;;;24.90;44.10;;;;;;1499772;79;662;-56
2022/05/07 16:19:05;;;;;;;;;;;24.80;44.10;;;;;;1499353;79;712;-57
2022/05/07 16:21:07;;;;;;;;;;;24.80;44.10;;;;;;1498186;79;1093;-55
2022/05/07 16:25:29;;;;;;;;;;;24.70;44.20;;;;;;1502064;78;1885;-57
2022/05/07 16:27:31;;;;;;;;;;;24.80;44.20;;;;;;1501426;78;672;-55
2022/05/07 16:29:32;;;;;;;;;;;24.80;44.20;;;;;;1499370;78;1173;-55
2022/05/07 16:31:34;;;;;;;;;;;24.80;44.30;;;;;;1501870;79;824;-59
2022/05/07 16:33:36;;;;;;;;;;;24.80;44.30;;;;;;1501356;79;698;-59
2022/05/07 16:35:38;;;;;;;;;;;24.80;44.40;;;;;;1497546;78;683;-59
2022/05/07 16:37:40;;;;;;;;;;;24.80;44.40;;;;;;1491834;78;1592;-54
2022/05/07 16:39:43;;;;;;;;;;;24.70;44.40;;;;;;1502011;78;1167;-57
2022/05/07 16:41:44;;;;;;;;;;;24.80;44.40;;;;;;1506016;78;1909;-58
2022/05/07 16:43:46;;;;;;;;;;;24.70;44.50;;;;;;1501685;79;725;-57
2022/05/07 16:45:48;;;;;;;;;;;24.70;44.50;;;;;;1497547;79;683;-56
2022/05/07 16:47:50;;;;;;;;;;;24.70;44.50;;;;;;1485209;79;607;-59
2022/05/07 16:49:52;;;;;;;;;;;24.70;44.50;;;;;;1493065;79;1178;-58
2022/05/07 16:51:54;;;;;;;;;;;24.80;44.50;;;;;;1492166;78;1563;-57
2022/05/07 16:53:56;;;;;;;;;;;24.80;44.50;;;;;;1493105;77;642;-56
2022/05/07 16:55:57;;;;;;;;;;;24.80;44.50;;;;;;1502415;79;686;-56
2022/05/07 16:57:59;;;;;;;;;;;24.80;44.40;;;;;;1501909;79;632;-55
2022/05/07 17:00:01;;;;;;;;;;;24.80;44.30;;;;;;1506346;78;1164;-56
2022/05/07 17:02:03;;;;;;;;;;;24.90;44.20;;;;;;1518145;78;1916;-56
2022/05/07 17:04:05;;;;;;;;;;;25.00;44.10;;;;;;1502185;78;706;-60
2022/05/07 17:06:07;;;;;;;;;;;25.20;44.00;;;;;;1481028;78;1576;-58
2022/05/07 17:08:09;;;;;;;;;;;25.10;43.80;;;;;;1496767;78;693;-58
2022/05/07 17:10:11;;;;;;;;;;;25.20;43.70;;;;;;1500728;78;1124;-55
2022/05/07 17:12:14;;;;;;;;;;;25.10;43.60;;;;;;1501844;79;676;-57
2022/05/07 17:14:16;;;;;;;;;;;25.20;43.60;;;;;;1502807;78;692;-57
2022/05/07 17:19:16;;;;;;;;;;;25.10;43.70;;;;;;1493296;78;1641;-59
2022/05/07 17:21:18;;;;;;;;;;;25.00;44.00;;;;;;1493676;78;1569;-55
2022/05/07 17:23:20;;;;;;;;;;;24.90;44.20;;;;;;1509243;78;1923;-55
2022/05/07 17:25:22;;;;;;;;;;;24.80;44.30;;;;;;1495822;78;670;-55
2022/05/07 17:27:24;;;;;;;;;;;24.90;44.50;;;;;;1501419;79;731;-57
2022/05/07 17:29:26;;;;;;;;;;;24.80;44.50;;;;;;1502170;78;1140;-54
2022/05/07 17:31:28;;;;;;;;;;;24.80;44.50;;;;;;1494227;78;788;-55
2022/05/07 17:33:35;;;;;;;;;;;24.80;44.60;;;;;;1491772;79;662;-58
2022/05/07 17:35:35;;;;;;;;;;;24.80;44.70;;;;;;1495408;78;1537;-57
2022/05/07 17:37:37;;;;;;;;;;;24.70;44.80;;;;;;1500456;78;706;-57
2022/05/07 17:39:39;;;;;;;;;;;24.80;44.90;;;;;;1491737;79;1168;-55
2022/05/07 17:41:41;;;;;;;;;;;24.70;44.90;;;;;;1488175;79;778;-54
2022/05/07 17:43:43;;;;;;;;;;;24.70;45.00;;;;;;1494399;79;825;-57
2022/05/07 17:45:45;;;;;;;;;;;24.70;45.00;;;;;;1496747;78;681;-57
2022/05/07 17:49:16;;;;;;;;;;;24.70;45.00;;;;;;1500880;78;1220;-57
2022/05/07 17:49:53;;;;;;;;;;;24.60;45.00;;;;;;1495580;78;1359;-56
2022/05/07 17:51:55;;;;;;;;;;;24.70;45.10;;;;;;1491453;78;1793;-54
2022/05/07 17:54:00;;;;;;;;;;;24.70;45.00;;;;;;1497108;78;695;-54
2022/05/07 17:56:01;;;;;;;;;;;24.70;45.00;;;;;;1503405;78;1518;-54
2022/05/07 17:58:03;;;;;;;;;;;24.80;44.90;;;;;;1502041;78;622;-55
2022/05/07 18:00:06;;;;;;;;;;;24.90;44.70;;;;;;1495590;78;1161;-58
2022/05/07 18:02:09;;;;;;;;;;;24.90;44.50;;;;;;1490835;79;1941;-54
2022/05/07 18:04:11;;;;;;;;;;;25.00;44.30;;;;;;1495570;78;715;-56
2022/05/07 18:06:13;;;;;;;;;;;25.00;44.20;;;;;;1496328;78;655;-53
2022/05/07 18:08:16;;;;;;;;;;;25.10;44.00;;;;;;1499957;79;702;-55
2022/05/07 18:10:18;;;;;;;;;;;25.20;43.90;;;;;;1502935;79;1159;-55
2022/05/07 18:12:21;;;;;;;;;;;25.20;43.60;;;;;;1502095;78;690;-59
2022/05/07 18:14:23;;;;;;;;;;;25.20;43.40;;;;;;1493174;79;675;-57
2022/05/07 18:16:25;;;;;;;;;;;25.30;43.40;;;;;;1500063;79;1418;-59